createdAt,value
2019-04-29T00:01:22.885Z,4.44
2019-04-29T00:03:51.000Z,4.34
2019-04-29T00:06:18.275Z,4.28
2019-04-29T00:08:45.572Z,4.29
2019-04-29T00:11:12.843Z,4.32
2019-04-29T00:13:40.126Z,4.35
2019-04-29T00:16:07.409Z,4.38
2019-04-29T00:18:34.447Z,4.37
2019-04-29T00:21:01.481Z,4.36
2019-04-29T00:23:28.524Z,4.31
2019-04-29T00:25:55.555Z,4.23
2019-04-29T00:28:22.680Z,4.18
2019-04-29T00:30:49.721Z,4.13
2019-04-29T00:33:17.068Z,4.08
2019-04-29T00:35:44.426Z,4.06
2019-04-29T00:38:11.647Z,4.03
2019-04-29T00:40:38.677Z,3.96
2019-04-29T00:43:05.946Z,3.89
2019-04-29T00:45:33.001Z,3.78
2019-04-29T00:48:00.267Z,3.72
2019-04-29T00:50:27.313Z,3.63
2019-04-29T00:52:54.593Z,3.57
2019-04-29T00:55:21.890Z,3.56
2019-04-29T00:57:49.177Z,3.53
2019-04-29T01:00:16.219Z,3.46
2019-04-29T01:02:43.249Z,3.42
2019-04-29T01:05:10.539Z,3.38
2019-04-29T01:07:37.816Z,3.36
2019-04-29T01:10:05.107Z,3.41
2019-04-29T01:12:32.135Z,3.42
2019-04-29T01:14:59.176Z,3.40
2019-04-29T01:17:26.208Z,3.40
2019-04-29T01:19:54.223Z,3.40
2019-04-29T01:22:21.247Z,3.44
2019-04-29T01:24:48.299Z,3.49
2019-04-29T01:27:15.327Z,3.55
2019-04-29T01:29:42.642Z,3.58
2019-04-29T01:32:09.910Z,3.62
2019-04-29T01:34:36.950Z,3.66
2019-04-29T01:37:04.223Z,3.70
2019-04-29T01:39:31.268Z,3.71
2019-04-29T01:41:58.298Z,3.73
2019-04-29T01:44:25.349Z,3.74
2019-04-29T01:46:52.628Z,3.72
2019-04-29T01:49:19.890Z,3.72
2019-04-29T01:51:46.935Z,3.70
2019-04-29T01:54:13.964Z,3.68
2019-04-29T01:56:41.013Z,3.66
2019-04-29T01:59:08.045Z,3.65
2019-04-29T02:01:35.096Z,3.64
2019-04-29T02:04:02.128Z,3.65
2019-04-29T02:06:29.172Z,3.65
2019-04-29T02:08:56.205Z,3.67
2019-04-29T02:11:23.488Z,3.66
2019-04-29T02:13:50.522Z,3.66
2019-04-29T02:16:17.571Z,3.66
2019-04-29T02:18:44.606Z,3.65
2019-04-29T02:21:11.645Z,3.66
2019-04-29T02:23:39.045Z,3.67
2019-04-29T02:26:06.083Z,3.71
2019-04-29T02:28:33.123Z,3.76
2019-04-29T02:31:00.499Z,3.84
2019-04-29T02:33:27.529Z,3.91
2019-04-29T02:35:54.893Z,3.97
2019-04-29T02:38:21.927Z,4.01
2019-04-29T02:40:48.969Z,4.04
2019-04-29T02:43:15.996Z,4.08
2019-04-29T02:45:43.043Z,4.11
2019-04-29T02:48:10.337Z,4.14
2019-04-29T02:50:37.390Z,4.19
2019-04-29T02:53:04.414Z,4.20
2019-04-29T02:55:31.787Z,4.23
2019-04-29T02:57:58.821Z,4.27
2019-04-29T03:00:25.868Z,4.31
2019-04-29T03:02:52.908Z,4.36
2019-04-29T03:05:19.947Z,4.37
2019-04-29T03:07:47.344Z,4.38
2019-04-29T03:10:14.792Z,4.41
2019-04-29T03:12:41.839Z,4.42
2019-04-29T03:15:09.196Z,4.46
2019-04-29T03:17:36.239Z,4.49
2019-04-29T03:20:03.275Z,4.52
2019-04-29T03:22:30.322Z,4.52
2019-04-29T03:24:57.359Z,4.52
2019-04-29T03:27:24.410Z,4.57
2019-04-29T03:29:51.438Z,4.61
2019-04-29T03:32:18.486Z,4.59
2019-04-29T03:34:45.783Z,4.56
2019-04-29T03:37:12.837Z,4.56
2019-04-29T03:39:39.872Z,4.55
2019-04-29T03:42:07.602Z,4.50
2019-04-29T03:44:35.922Z,4.48
2019-04-29T03:47:02.979Z,4.46
2019-04-29T03:49:30.027Z,4.46
2019-04-29T03:51:57.077Z,4.46
2019-04-29T03:54:24.422Z,4.45
2019-04-29T03:56:51.533Z,4.43
2019-04-29T03:59:19.558Z,4.45
2019-04-29T04:01:46.619Z,4.44
2019-04-29T04:04:13.941Z,4.45
2019-04-29T04:06:41.298Z,4.47
2019-04-29T04:09:08.582Z,4.47
2019-04-29T04:11:35.869Z,4.50
2019-04-29T04:14:03.162Z,4.52
2019-04-29T04:16:30.213Z,4.55
2019-04-29T04:18:57.562Z,4.54
2019-04-29T04:21:24.919Z,4.56
2019-04-29T04:23:51.983Z,4.57
2019-04-29T04:26:19.258Z,4.56
2019-04-29T04:28:46.308Z,4.56
2019-04-29T04:31:13.649Z,4.57
2019-04-29T04:33:40.698Z,4.62
2019-04-29T04:36:07.984Z,4.65
2019-04-29T04:38:35.047Z,4.69
2019-04-29T04:41:02.438Z,4.73
2019-04-29T04:43:29.716Z,4.75
2019-04-29T04:45:56.760Z,4.79
2019-04-29T04:48:24.086Z,4.86
2019-04-29T04:50:51.437Z,4.88
2019-04-29T04:53:18.490Z,4.93
2019-04-29T04:55:45.847Z,4.96
2019-04-29T04:58:13.201Z,4.96
2019-04-29T05:00:40.550Z,4.98
2019-04-29T05:03:07.602Z,4.99
2019-04-29T05:05:34.651Z,4.95
2019-04-29T05:08:01.705Z,4.98
2019-04-29T05:10:28.747Z,5.02
2019-04-29T05:12:56.102Z,5.05
2019-04-29T05:15:23.137Z,5.08
2019-04-29T05:17:53.058Z,5.12
2019-04-29T05:20:18.938Z,5.15
2019-04-29T05:22:50.275Z,5.18
2019-04-29T05:25:17.312Z,5.23
2019-04-29T05:27:44.362Z,5.28
2019-04-29T05:30:11.637Z,5.34
2019-04-29T05:32:38.685Z,5.37
2019-04-29T05:35:05.979Z,5.47
2019-04-29T05:37:33.018Z,5.58
2019-04-29T05:40:00.382Z,5.68
2019-04-29T05:42:27.418Z,5.77
2019-04-29T05:44:54.469Z,5.89
2019-04-29T05:47:21.510Z,5.97
2019-04-29T05:49:48.881Z,6.13
2019-04-29T05:52:15.927Z,6.28
2019-04-29T05:54:42.979Z,6.41
2019-04-29T05:57:10.268Z,6.49
2019-04-29T05:59:37.322Z,6.55
2019-04-29T06:02:04.634Z,6.56
2019-04-29T06:04:31.692Z,6.64
2019-04-29T06:06:58.732Z,6.66
2019-04-29T06:09:26.091Z,6.73
2019-04-29T06:11:53.130Z,6.77
2019-04-29T06:14:22.155Z,6.87
2019-04-29T06:16:52.552Z,7.00
2019-04-29T06:19:18.473Z,7.05
2019-04-29T06:21:45.512Z,7.19
2019-04-29T06:24:12.800Z,7.31
2019-04-29T06:26:40.129Z,7.47
2019-04-29T06:29:07.185Z,7.57
2019-04-29T06:31:39.774Z,7.67
2019-04-29T06:34:07.138Z,7.79
2019-04-29T06:36:34.465Z,7.89
2019-04-29T06:39:01.826Z,8.00
2019-04-29T06:41:30.420Z,8.06
2019-04-29T06:44:00.669Z,8.16
2019-04-29T06:46:26.205Z,8.25
2019-04-29T06:48:53.493Z,8.34
2019-04-29T06:51:20.620Z,8.42
2019-04-29T06:59:22.577Z,8.63
2019-04-29T07:01:49.613Z,8.80
2019-04-29T07:04:16.666Z,9.05
2019-04-29T07:06:56.802Z,9.37
2019-04-29T07:09:12.731Z,9.58
2019-04-29T07:11:40.074Z,9.85
2019-04-29T07:14:07.393Z,10.16
2019-04-29T07:16:34.755Z,10.52
2019-04-29T07:19:02.114Z,10.89
2019-04-29T07:21:29.158Z,11.07
2019-04-29T07:23:56.195Z,11.14
2019-04-29T07:26:23.248Z,11.15
2019-04-29T07:28:53.317Z,11.28
2019-04-29T07:31:19.049Z,11.29
2019-04-29T07:33:48.212Z,11.33
2019-04-29T07:36:18.728Z,11.42
2019-04-29T07:38:46.523Z,11.53
2019-04-29T07:41:14.277Z,11.63
2019-04-29T07:43:43.050Z,11.77
2019-04-29T07:46:10.570Z,12.00
2019-04-29T07:48:41.847Z,11.86
2019-04-29T07:51:06.694Z,11.95
2019-04-29T07:53:38.764Z,12.15
2019-04-29T07:56:06.364Z,12.19
2019-04-29T07:58:31.918Z,12.25
2019-04-29T08:00:58.970Z,12.28
2019-04-29T08:03:26.005Z,12.44
2019-04-29T08:05:53.053Z,12.60
2019-04-29T08:08:21.218Z,12.77
2019-04-29T08:10:56.076Z,12.81
2019-04-29T08:13:17.892Z,13.05
2019-04-29T08:15:45.297Z,13.50
2019-04-29T08:18:16.268Z,13.80
2019-04-29T08:20:41.840Z,14.22
2019-04-29T08:23:09.108Z,14.70
2019-04-29T08:25:36.406Z,15.06
2019-04-29T08:28:03.452Z,15.44
2019-04-29T08:30:30.511Z,15.88
2019-04-29T08:32:57.546Z,16.18
2019-04-29T08:35:24.595Z,16.34
2019-04-29T08:37:51.637Z,16.44
2019-04-29T08:40:18.680Z,16.84
2019-04-29T08:42:46.926Z,16.91
2019-04-29T08:45:15.710Z,17.07
2019-04-29T08:47:43.065Z,17.30
2019-04-29T08:50:11.172Z,17.35
2019-04-29T08:52:38.492Z,17.16
2019-04-29T08:55:05.858Z,17.13
2019-04-29T09:00:04.993Z,17.50
2019-04-29T09:02:35.046Z,17.52
2019-04-29T09:05:01.133Z,17.56
2019-04-29T09:07:28.182Z,17.64
2019-04-29T09:09:56.136Z,17.63
2019-04-29T09:12:29.019Z,17.50
2019-04-29T09:14:52.801Z,17.54
2019-04-29T09:17:20.883Z,17.62
2019-04-29T09:19:48.344Z,17.58
2019-04-29T09:22:15.613Z,17.81
2019-04-29T09:24:43.516Z,18.01
2019-04-29T09:27:12.041Z,18.03
2019-04-29T09:29:39.371Z,17.98
2019-04-29T09:32:06.720Z,18.00
2019-04-29T09:34:34.731Z,18.03
2019-04-29T09:37:01.774Z,18.06
2019-04-29T09:39:42.438Z,18.00
2019-04-29T09:41:58.998Z,17.88
2019-04-29T09:44:26.368Z,17.77
2019-04-29T09:46:53.721Z,17.46
2019-04-29T09:49:20.766Z,17.28
2019-04-29T09:51:48.076Z,17.10
2019-04-29T09:54:16.245Z,16.98
2019-04-29T09:56:44.351Z,16.71
2019-04-29T09:59:11.630Z,16.55
2019-04-29T10:01:38.920Z,16.41
2019-04-29T10:04:05.961Z,16.22
2019-04-29T10:06:33.280Z,16.00
2019-04-29T10:09:00.334Z,15.70
2019-04-29T10:11:29.322Z,15.48
2019-04-29T10:13:56.380Z,15.24
2019-04-29T10:16:23.829Z,15.36
2019-04-29T10:18:50.888Z,15.55
2019-04-29T10:21:21.880Z,15.67
2019-04-29T10:23:46.923Z,15.69
2019-04-29T10:26:13.959Z,15.57
2019-04-29T10:28:41.015Z,15.25
2019-04-29T10:31:08.056Z,15.02
2019-04-29T10:33:35.415Z,14.88
2019-04-29T10:36:02.787Z,14.74
2019-04-29T10:38:30.006Z,14.97
2019-04-29T10:41:00.580Z,15.18
2019-04-29T10:43:26.284Z,14.84
2019-04-29T10:45:53.323Z,14.62
2019-04-29T10:48:20.365Z,14.52
2019-04-29T10:50:52.054Z,14.50
2019-04-29T10:53:18.043Z,14.72
2019-04-29T10:55:45.607Z,15.29
2019-04-29T10:58:14.003Z,15.71
2019-04-29T11:00:41.046Z,16.33
2019-04-29T11:03:08.100Z,16.58
2019-04-29T11:05:35.205Z,16.07
2019-04-29T11:08:04.272Z,16.41
2019-04-29T11:10:31.888Z,17.00
2019-04-29T11:12:59.238Z,17.25
2019-04-29T11:15:30.633Z,17.52
2019-04-29T11:17:59.339Z,17.67
2019-04-29T11:20:24.844Z,17.86
2019-04-29T11:22:52.369Z,17.78
2019-04-29T11:25:19.709Z,17.47
2019-04-29T11:27:47.074Z,17.70
2019-04-29T11:30:14.415Z,17.81
2019-04-29T11:32:41.774Z,17.68
2019-04-29T11:35:08.820Z,17.40
2019-04-29T11:37:36.193Z,17.27
2019-04-29T11:40:03.239Z,17.29
2019-04-29T11:42:31.873Z,17.29
2019-04-29T11:45:01.890Z,17.41
2019-04-29T11:47:28.468Z,17.24
2019-04-29T11:49:55.522Z,17.40
2019-04-29T11:52:23.630Z,17.44
2019-04-29T11:54:51.664Z,17.42
2019-04-29T11:57:18.712Z,17.54
2019-04-29T11:59:45.764Z,17.93
2019-04-29T12:02:12.797Z,18.11
2019-04-29T12:04:42.148Z,18.55
2019-04-29T12:07:08.898Z,18.70
2019-04-29T12:09:35.952Z,18.51
2019-04-29T12:12:02.988Z,18.38
2019-04-29T12:14:33.797Z,17.75
2019-04-29T12:16:59.120Z,18.02
2019-04-29T12:19:26.172Z,18.57
2019-04-29T12:21:53.478Z,18.81
2019-04-29T12:24:20.526Z,18.00
2019-04-29T12:26:47.571Z,18.24
2019-04-29T12:29:18.369Z,17.89
2019-04-29T12:31:44.877Z,18.06
2019-04-29T12:34:13.223Z,18.49
2019-04-29T12:36:54.629Z,18.68
2019-04-29T12:39:09.695Z,18.24
2019-04-29T12:41:48.192Z,17.95
2019-04-29T12:44:05.475Z,18.35
2019-04-29T12:46:32.866Z,18.32
2019-04-29T12:49:03.517Z,18.52
2019-04-29T12:51:28.987Z,18.30
2019-04-29T12:53:56.017Z,18.05
2019-04-29T12:56:25.961Z,17.84
2019-04-29T12:58:55.136Z,17.83
2019-04-29T13:01:20.547Z,17.53
2019-04-29T13:03:47.933Z,17.39
2019-04-29T13:06:14.992Z,16.78
2019-04-29T13:08:42.340Z,16.47
2019-04-29T13:11:09.714Z,16.59
2019-04-29T13:13:36.751Z,16.40
2019-04-29T13:16:04.097Z,16.28
2019-04-29T13:18:31.137Z,15.99
2019-04-29T13:21:09.477Z,16.14
2019-04-29T13:23:34.682Z,16.04
2019-04-29T13:25:57.845Z,16.12
2019-04-29T13:28:30.253Z,15.54
2019-04-29T13:30:56.943Z,15.42
2019-04-29T13:33:23.469Z,15.14
2019-04-29T13:35:50.822Z,15.10
2019-04-29T13:38:17.869Z,14.86
2019-04-29T13:40:45.996Z,14.68
2019-04-29T13:43:13.314Z,14.63
2019-04-29T13:45:40.374Z,14.13
2019-04-29T13:48:09.058Z,13.46
2019-04-29T13:50:39.815Z,12.96
2019-04-29T13:53:05.331Z,12.77
2019-04-29T13:55:47.954Z,12.49
2019-04-29T13:58:01.435Z,11.95
2019-04-29T14:00:28.777Z,11.51
2019-04-29T14:02:59.322Z,11.29
2019-04-29T14:05:24.920Z,11.23
2019-04-29T14:07:52.710Z,11.35
2019-04-29T14:10:20.707Z,11.59
2019-04-29T14:12:51.129Z,11.77
2019-04-29T14:15:16.798Z,11.82
2019-04-29T14:17:44.918Z,11.73
2019-04-29T14:20:15.756Z,11.65
2019-04-29T14:22:41.024Z,11.68
2019-04-29T14:25:08.371Z,11.85
2019-04-29T14:27:35.748Z,11.90
2019-04-29T14:30:06.847Z,12.09
2019-04-29T14:32:37.909Z,12.27
2019-04-29T14:35:02.053Z,12.48
2019-04-29T14:37:29.654Z,12.73
2019-04-29T14:39:57.023Z,12.94
2019-04-29T14:42:25.642Z,13.04
2019-04-29T14:44:53.099Z,13.05
2019-04-29T14:47:20.402Z,13.04
2019-04-29T14:49:47.766Z,12.80
2019-04-29T14:52:15.076Z,12.78
2019-04-29T14:54:43.606Z,12.81
2019-04-29T14:57:10.952Z,12.88
2019-04-29T14:59:38.227Z,12.94
2019-04-29T15:04:40.910Z,13.04
2019-04-29T15:07:08.398Z,12.73
2019-04-29T15:09:46.583Z,12.65
2019-04-29T15:12:04.717Z,12.45
2019-04-29T15:14:32.341Z,12.42
2019-04-29T15:16:59.576Z,12.16
2019-04-29T15:19:27.075Z,12.05
2019-04-29T15:21:54.341Z,11.93
2019-04-29T15:24:21.812Z,11.69
2019-04-29T15:26:49.807Z,11.45
2019-04-29T15:29:17.235Z,11.33
2019-04-29T15:31:47.183Z,11.03
2019-04-29T15:34:14.583Z,10.84
2019-04-29T15:36:42.126Z,10.74
2019-04-29T15:39:11.622Z,10.48
2019-04-29T15:41:38.861Z,10.18
2019-04-29T15:44:08.130Z,9.80
2019-04-29T15:46:46.383Z,9.54
2019-04-29T15:49:03.552Z,9.54
2019-04-29T15:51:30.891Z,9.49
2019-04-29T15:53:58.186Z,9.54
2019-04-29T15:56:28.692Z,9.49
2019-04-29T15:58:54.232Z,9.42
2019-04-29T16:01:27.293Z,9.39
2019-04-29T16:03:54.854Z,9.42
2019-04-29T16:06:21.384Z,9.32
2019-04-29T16:08:48.238Z,9.09
2019-04-29T16:11:15.271Z,8.84
2019-04-29T16:13:47.750Z,8.69
2019-04-29T16:16:11.404Z,8.60
2019-04-29T16:18:38.783Z,8.51
2019-04-29T16:21:05.812Z,8.43
2019-04-29T16:23:38.655Z,8.45
2019-04-29T16:26:02.361Z,8.49
2019-04-29T16:28:31.564Z,8.48
2019-04-29T16:30:58.138Z,8.47
2019-04-29T16:33:25.187Z,8.38
2019-04-29T16:35:52.219Z,8.27
2019-04-29T16:38:20.768Z,8.23
2019-04-29T16:40:48.766Z,8.09
2019-04-29T16:43:16.201Z,7.96
2019-04-29T16:45:44.219Z,7.92
2019-04-29T16:48:13.681Z,7.80
2019-04-29T16:50:41.028Z,7.80
2019-04-29T16:53:08.385Z,7.85
2019-04-29T16:55:42.898Z,7.87
2019-04-29T16:58:07.697Z,7.89
2019-04-29T17:00:33.499Z,7.91
2019-04-29T17:03:00.530Z,7.88
2019-04-29T17:05:27.584Z,7.84
2019-04-29T17:07:54.611Z,7.84
2019-04-29T17:10:21.663Z,7.82
2019-04-29T17:15:37.698Z,7.79
2019-04-29T17:18:05.099Z,7.77
2019-04-29T17:20:32.434Z,7.73
2019-04-29T17:22:59.781Z,7.74
2019-04-29T17:25:26.827Z,7.71
2019-04-29T17:27:54.211Z,7.67
2019-04-29T17:30:21.530Z,7.63
2019-04-29T17:32:50.018Z,7.60
2019-04-29T17:35:21.460Z,7.56
2019-04-29T17:37:46.639Z,7.53
2019-04-29T17:40:19.572Z,7.52
2019-04-29T17:43:00.792Z,7.53
2019-04-29T17:45:32.596Z,7.50
2019-04-29T17:47:59.785Z,7.48
2019-04-29T17:50:30.719Z,7.46
2019-04-29T17:53:09.139Z,7.45
2019-04-29T17:55:40.238Z,7.43
2019-04-29T17:58:07.303Z,7.37
2019-04-29T18:03:12.504Z,7.35
2019-04-29T18:05:54.440Z,7.29
2019-04-29T18:08:15.344Z,7.21
2019-04-29T18:10:42.393Z,7.17
2019-04-29T18:13:18.775Z,7.15
2019-04-29T18:18:17.674Z,7.12
2019-04-29T18:20:47.178Z,7.08
2019-04-29T18:23:18.791Z,7.04
2019-04-29T18:25:44.842Z,7.04
2019-04-29T18:28:13.896Z,7.04
2019-04-29T18:30:41.216Z,6.99
2019-04-29T18:33:08.981Z,6.96
2019-04-29T18:43:23.067Z,6.90
2019-04-29T18:48:22.014Z,6.81
2019-04-29T18:50:49.187Z,6.83
2019-04-29T18:53:22.566Z,6.80
2019-04-29T18:58:28.765Z,6.76
2019-04-29T19:00:56.477Z,6.80
2019-04-29T19:03:25.318Z,6.81
2019-04-29T19:08:32.068Z,6.77
2019-04-29T19:13:37.815Z,6.78
2019-04-29T19:16:12.069Z,6.72
2019-04-29T19:18:38.924Z,6.71
2019-04-29T19:21:10.496Z,6.73
2019-04-29T19:23:38.651Z,6.71
2019-04-29T19:26:05.928Z,6.70
2019-04-29T19:28:45.429Z,6.70
2019-04-29T19:33:50.571Z,6.68
2019-04-29T19:36:21.491Z,6.65
2019-04-29T19:38:47.393Z,6.63
2019-04-29T19:46:36.751Z,6.60
2019-04-29T19:49:07.419Z,6.57
2019-04-29T19:51:32.111Z,6.57
2019-04-29T19:54:09.245Z,6.59
2019-04-29T19:56:40.956Z,6.61
2019-04-29T19:59:13.750Z,6.62
2019-04-29T20:01:49.666Z,6.62
2019-04-29T20:04:20.914Z,6.65
2019-04-29T20:06:48.210Z,6.65
2019-04-29T20:09:21.389Z,6.67
2019-04-29T20:11:48.394Z,6.68
2019-04-29T20:14:20.693Z,6.70
2019-04-29T20:19:34.231Z,6.63
2019-04-29T20:22:05.557Z,6.61
2019-04-29T20:24:30.694Z,6.59
2019-04-29T20:27:00.192Z,6.58
2019-04-29T20:29:33.801Z,6.61
2019-04-29T20:34:46.080Z,6.66
2019-04-29T20:37:16.213Z,6.67
2019-04-29T20:39:45.433Z,6.69
2019-04-29T20:44:55.219Z,6.67
2019-04-29T20:47:37.282Z,6.68
2019-04-29T20:50:08.977Z,6.68
2019-04-29T20:52:36.692Z,6.64
2019-04-29T20:55:06.507Z,6.62
2019-04-29T20:57:37.534Z,6.66
2019-04-29T21:00:11.901Z,6.67
2019-04-29T21:02:41.579Z,6.61
2019-04-29T21:05:23.319Z,6.63
2019-04-29T21:10:24.218Z,6.59
2019-04-29T21:12:51.284Z,6.60
2019-04-29T21:15:36.183Z,6.61
2019-04-29T21:18:10.435Z,6.60
2019-04-29T21:20:39.988Z,6.58
2019-04-29T21:23:10.421Z,6.63
2019-04-29T21:25:38.482Z,6.63
2019-04-29T21:28:05.757Z,6.64
2019-04-29T21:30:42.274Z,6.63
2019-04-29T21:35:37.959Z,6.64
2019-04-29T21:38:05.204Z,6.66
2019-04-29T21:40:35.067Z,6.70
2019-04-29T21:43:08.103Z,6.67
2019-04-29T21:45:48.364Z,6.67
2019-04-29T21:48:16.744Z,6.64
2019-04-29T21:50:44.935Z,6.61
2019-04-29T21:53:15.085Z,6.61
2019-04-29T21:55:45.778Z,6.60
2019-04-29T21:58:17.122Z,6.62
2019-04-29T22:00:48.673Z,6.62
2019-04-29T22:03:26.509Z,6.63
2019-04-29T22:08:45.116Z,6.61
2019-04-29T22:11:19.646Z,6.64
2019-04-29T22:13:46.709Z,6.64
2019-04-29T22:16:18.254Z,6.64
2019-04-29T22:18:51.768Z,6.63
2019-04-29T22:21:25.912Z,6.63
2019-04-29T22:23:52.841Z,6.66
2019-04-29T22:26:23.418Z,6.66
2019-04-29T22:31:26.825Z,6.68
2019-04-29T22:36:43.356Z,6.71
2019-04-29T22:39:10.713Z,6.71
2019-04-29T22:41:37.752Z,6.69
2019-04-29T22:44:04.978Z,6.72
2019-04-29T22:46:32.017Z,6.71
2019-04-29T22:48:59.070Z,6.71
2019-04-29T22:51:26.462Z,6.71
2019-04-29T22:53:55.688Z,6.72
2019-04-29T22:56:22.911Z,6.70
2019-04-29T22:58:50.289Z,6.70
2019-04-29T23:01:17.768Z,6.68
2019-04-29T23:03:45.148Z,6.67
2019-04-29T23:06:15.721Z,6.69
2019-04-29T23:08:44.799Z,6.68
2019-04-29T23:11:12.059Z,6.69
2019-04-29T23:13:39.101Z,6.66
2019-04-29T23:16:06.159Z,6.67
2019-04-29T23:18:41.619Z,6.70
2019-04-29T23:21:03.934Z,6.69
2019-04-29T23:23:33.752Z,6.72
2019-04-29T23:26:04.192Z,6.75
2019-04-29T23:28:28.811Z,6.76
2019-04-29T23:30:56.065Z,6.76
2019-04-29T23:33:24.550Z,6.77
2019-04-29T23:35:52.090Z,6.77
2019-04-29T23:38:19.365Z,6.74
2019-04-29T23:40:49.746Z,6.74
2019-04-29T23:43:15.797Z,6.74
2019-04-29T23:45:42.806Z,6.75
2019-04-29T23:48:10.089Z,6.74
2019-04-29T23:50:37.142Z,6.75
2019-04-29T23:53:05.786Z,6.76
2019-04-29T23:55:33.197Z,6.79
2019-04-29T23:58:03.729Z,6.83
